createdAt,value
2018-03-04T00:01:02.617Z,98.82
2018-03-04T00:03:30.392Z,99.03
2018-03-04T00:05:58.194Z,98.30
2018-03-04T00:08:25.956Z,98.07
2018-03-04T00:10:53.792Z,96.75
2018-03-04T00:13:21.564Z,99.03
2018-03-04T00:15:50.102Z,99.13
2018-03-04T00:18:17.888Z,98.13
2018-03-04T00:20:45.656Z,95.53
2018-03-04T00:23:13.459Z,98.07
2018-03-04T00:25:42.012Z,95.78
2018-03-04T00:28:09.772Z,99.20
2018-03-04T00:30:37.560Z,97.47
2018-03-04T00:33:06.126Z,96.37
2018-03-04T00:35:34.677Z,96.93
2018-03-04T00:38:02.478Z,98.53
2018-03-04T00:40:30.283Z,101.90
2018-03-04T00:42:58.087Z,102.85
2018-03-04T00:45:25.868Z,102.83
2018-03-04T00:47:54.441Z,98.83
2018-03-04T00:50:22.275Z,101.33
2018-03-04T00:52:50.068Z,101.40
2018-03-04T00:55:17.924Z,100.47
2018-03-04T00:57:45.785Z,101.57
2018-03-04T01:00:13.580Z,100.50
2018-03-04T01:02:42.172Z,100.40
2018-03-04T01:05:10.736Z,100.90
2018-03-04T01:07:38.551Z,100.43
2018-03-04T01:10:06.383Z,100.00
2018-03-04T01:12:35.020Z,99.43
2018-03-04T01:15:03.605Z,102.93
2018-03-04T01:17:31.405Z,101.40
2018-03-04T01:19:59.181Z,98.23
2018-03-04T01:22:27.848Z,101.30
2018-03-04T01:24:55.655Z,99.00
2018-03-04T01:27:23.427Z,102.37
2018-03-04T01:29:51.228Z,98.77
2018-03-04T01:32:19.052Z,101.23
2018-03-04T01:34:46.895Z,98.50
2018-03-04T01:37:15.500Z,100.33
2018-03-04T01:39:43.282Z,99.37
2018-03-04T01:42:11.159Z,102.17
2018-03-04T01:44:38.981Z,100.10
2018-03-04T01:47:06.852Z,98.80
2018-03-04T01:49:34.680Z,103.00
2018-03-04T01:52:02.459Z,102.53
2018-03-04T01:54:31.006Z,98.73
2018-03-04T01:56:58.813Z,101.23
2018-03-04T01:59:27.420Z,101.07
2018-03-04T02:01:55.262Z,100.63
2018-03-04T02:04:23.804Z,102.03
2018-03-04T02:06:51.631Z,98.37
2018-03-04T02:09:19.638Z,101.77
2018-03-04T02:11:47.437Z,101.28
2018-03-04T02:14:15.992Z,98.47
2018-03-04T02:16:43.815Z,99.37
2018-03-04T02:19:11.658Z,98.43
2018-03-04T02:21:39.467Z,99.35
2018-03-04T02:24:07.372Z,96.43
2018-03-04T02:26:35.980Z,99.93
2018-03-04T02:29:03.799Z,96.77
2018-03-04T02:31:31.592Z,96.97
2018-03-04T02:33:59.384Z,96.35
2018-03-04T02:36:27.176Z,98.67
2018-03-04T02:38:55.011Z,96.57
2018-03-04T02:41:22.928Z,96.03
2018-03-04T02:43:50.748Z,95.95
2018-03-04T02:46:18.521Z,98.87
2018-03-04T02:48:46.344Z,96.53
2018-03-04T02:51:14.895Z,99.03
2018-03-04T02:53:42.719Z,97.82
2018-03-04T02:56:10.507Z,97.80
2018-03-04T02:58:38.332Z,94.63
2018-03-04T03:01:06.164Z,95.87
2018-03-04T03:03:33.955Z,96.43
2018-03-04T03:06:02.519Z,96.60
2018-03-04T03:08:31.141Z,98.45
2018-03-04T03:10:59.047Z,97.53
2018-03-04T03:13:26.858Z,97.70
2018-03-04T03:15:54.684Z,96.60
2018-03-04T03:18:22.508Z,98.87
2018-03-04T03:20:50.284Z,96.82
2018-03-04T03:23:18.172Z,97.15
2018-03-04T03:25:46.039Z,95.57
2018-03-04T03:28:14.644Z,96.05
2018-03-04T03:30:42.460Z,93.93
2018-03-04T03:33:10.254Z,95.90
2018-03-04T03:35:38.052Z,95.85
2018-03-04T03:38:06.604Z,95.87
2018-03-04T03:40:34.413Z,96.55
2018-03-04T03:43:02.241Z,97.30
2018-03-04T03:45:30.048Z,96.30
2018-03-04T03:47:57.808Z,96.00
2018-03-04T03:50:25.628Z,95.93
2018-03-04T03:52:53.430Z,94.68
2018-03-04T03:55:21.215Z,95.32
2018-03-04T03:57:49.052Z,95.60
2018-03-04T04:00:17.598Z,95.43
2018-03-04T04:02:45.390Z,95.00
2018-03-04T04:05:14.041Z,96.22
2018-03-04T04:07:41.839Z,95.65
2018-03-04T04:10:10.397Z,97.60
2018-03-04T04:12:38.180Z,95.85
2018-03-04T04:15:06.763Z,95.60
2018-03-04T04:17:35.332Z,96.60
2018-03-04T04:20:03.157Z,96.35
2018-03-04T04:22:30.960Z,96.15
2018-03-04T04:24:58.774Z,97.22
2018-03-04T04:27:26.586Z,96.28
2018-03-04T04:29:54.383Z,95.18
2018-03-04T04:32:22.951Z,96.78
2018-03-04T04:34:51.540Z,94.37
2018-03-04T04:37:20.139Z,96.28
2018-03-04T04:39:47.920Z,95.25
2018-03-04T04:42:15.717Z,97.50
2018-03-04T04:44:43.555Z,98.20
2018-03-04T04:47:11.353Z,96.87
2018-03-04T04:49:39.160Z,96.30
2018-03-04T04:52:07.111Z,95.87
2018-03-04T04:54:35.682Z,96.30
2018-03-04T04:57:03.513Z,94.50
2018-03-04T04:59:31.319Z,94.85
2018-03-04T05:02:29.265Z,96.40
2018-03-04T05:04:57.076Z,96.75
2018-03-04T05:07:24.881Z,96.50
2018-03-04T05:09:52.661Z,96.05
2018-03-04T05:12:21.243Z,96.55
2018-03-04T05:14:49.039Z,95.15
2018-03-04T05:17:17.573Z,96.57
2018-03-04T05:19:45.414Z,98.03
2018-03-04T05:22:13.225Z,97.43
2018-03-04T05:24:41.036Z,96.07
2018-03-04T05:27:09.652Z,96.50
2018-03-04T05:29:37.464Z,97.00
2018-03-04T05:32:06.037Z,96.03
2018-03-04T05:34:34.604Z,97.18
2018-03-04T05:37:02.431Z,95.72
2018-03-04T05:39:30.219Z,96.65
2018-03-04T05:41:58.095Z,96.65
2018-03-04T05:44:25.920Z,97.07
2018-03-04T05:46:54.550Z,96.30
2018-03-04T05:49:22.355Z,96.75
2018-03-04T05:51:50.204Z,95.35
2018-03-04T05:54:18.807Z,97.55
2018-03-04T05:56:46.578Z,96.63
2018-03-04T05:59:14.380Z,96.15
2018-03-04T06:01:42.189Z,97.68
2018-03-04T06:04:09.999Z,98.72
2018-03-04T06:06:38.596Z,99.87
2018-03-04T06:09:06.397Z,98.22
2018-03-04T06:11:34.967Z,98.53
2018-03-04T06:14:03.553Z,101.12
2018-03-04T06:16:32.155Z,100.03
2018-03-04T06:18:59.947Z,98.50
2018-03-04T06:21:27.746Z,100.45
2018-03-04T06:23:55.612Z,99.30
2018-03-04T06:26:23.487Z,103.47
2018-03-04T06:28:52.038Z,105.83
2018-03-04T06:31:19.860Z,103.50
2018-03-04T06:33:47.652Z,101.60
2018-03-04T06:36:15.494Z,103.37
2018-03-04T06:38:43.334Z,104.03
2018-03-04T06:41:11.898Z,104.77
2018-03-04T06:43:39.717Z,104.70
2018-03-04T06:46:07.518Z,105.27
2018-03-04T06:48:35.288Z,106.63
2018-03-04T06:51:03.096Z,107.43
2018-03-04T06:53:30.864Z,105.43
2018-03-04T06:55:58.661Z,105.43
2018-03-04T06:58:26.468Z,107.43
2018-03-04T07:00:55.030Z,105.63
2018-03-04T07:03:22.844Z,106.33
2018-03-04T07:05:50.650Z,106.40
2018-03-04T07:08:18.447Z,121.67
2018-03-04T07:10:47.107Z,91.97
2018-03-04T07:13:14.871Z,75.57
2018-03-04T07:15:42.637Z,62.20
2018-03-04T07:18:10.424Z,56.87
2018-03-04T07:20:38.957Z,55.87
2018-03-04T07:23:07.993Z,53.43
2018-03-04T07:25:36.237Z,52.90
2018-03-04T07:28:04.644Z,52.60
2018-03-04T07:30:32.511Z,51.70
2018-03-04T07:33:00.470Z,52.57
2018-03-04T07:35:28.530Z,52.90
2018-03-04T07:37:56.709Z,53.33
2018-03-04T07:40:24.675Z,52.20
2018-03-04T07:42:52.515Z,50.30
2018-03-04T07:45:20.482Z,52.07
2018-03-04T07:47:48.591Z,82.07
2018-03-04T07:50:16.733Z,50.30
2018-03-04T07:52:44.943Z,51.77
2018-03-04T07:55:12.914Z,50.47
2018-03-04T07:57:41.697Z,49.90
2018-03-04T08:00:09.657Z,50.10
2018-03-04T08:02:37.599Z,48.83
2018-03-04T08:05:05.523Z,50.50
2018-03-04T08:07:34.107Z,50.23
2018-03-04T08:10:02.835Z,50.83
2018-03-04T08:12:30.805Z,52.30
2018-03-04T08:14:58.807Z,52.83
2018-03-04T08:17:26.658Z,51.47
2018-03-04T08:19:54.767Z,52.37
2018-03-04T08:22:23.411Z,53.43
2018-03-04T08:25:03.179Z,51.13
2018-03-04T08:27:43.612Z,50.93
2018-03-04T08:30:11.404Z,52.13
2018-03-04T08:32:40.228Z,51.90
2018-03-04T08:35:07.988Z,51.60
2018-03-04T08:37:35.809Z,50.87
2018-03-04T08:40:03.656Z,52.77
2018-03-04T08:42:31.446Z,52.63
2018-03-04T08:44:59.317Z,53.33
2018-03-04T08:47:27.982Z,56.43
2018-03-04T08:49:55.953Z,56.67
2018-03-04T08:52:23.850Z,63.03
2018-03-04T08:54:52.504Z,68.93
2018-03-04T08:57:20.429Z,82.10
2018-03-04T08:59:48.330Z,100.80
2018-03-04T09:02:16.365Z,114.37
2018-03-04T09:04:44.310Z,104.93
2018-03-04T09:07:12.994Z,106.93
2018-03-04T09:09:40.967Z,106.67
2018-03-04T09:12:08.930Z,104.03
2018-03-04T09:14:36.793Z,105.33
2018-03-04T09:17:05.387Z,105.90
2018-03-04T09:19:33.155Z,105.97
2018-03-04T09:22:01.033Z,105.37
2018-03-04T09:24:28.849Z,111.33
2018-03-04T09:26:56.613Z,107.47
2018-03-04T09:29:24.379Z,108.93
2018-03-04T09:31:52.184Z,107.20
2018-03-04T09:34:20.011Z,108.03
2018-03-04T09:36:48.672Z,105.40
2018-03-04T09:39:16.468Z,104.73
2018-03-04T09:41:45.091Z,106.33
2018-03-04T09:44:12.920Z,107.00
2018-03-04T09:46:41.450Z,108.33
2018-03-04T09:49:09.305Z,106.93
2018-03-04T09:51:37.078Z,107.53
2018-03-04T09:54:04.937Z,106.10
2018-03-04T09:56:32.829Z,106.70
2018-03-04T09:59:00.657Z,106.33
2018-03-04T10:01:28.960Z,106.57
2018-03-04T10:03:56.792Z,105.83
2018-03-04T10:06:24.612Z,102.87
2018-03-04T10:08:52.469Z,103.30
2018-03-04T10:11:20.264Z,103.90
2018-03-04T10:13:48.831Z,100.90
2018-03-04T10:16:16.678Z,113.87
2018-03-04T10:18:44.499Z,117.63
2018-03-04T10:21:12.280Z,101.77
2018-03-04T10:23:40.181Z,92.13
2018-03-04T10:26:08.081Z,79.07
2018-03-04T10:28:35.860Z,69.87
2018-03-04T10:31:03.659Z,65.57
2018-03-04T10:33:31.404Z,62.03
2018-03-04T10:35:59.376Z,62.20
2018-03-04T10:38:27.185Z,58.87
2018-03-04T10:40:54.952Z,57.70
2018-03-04T10:43:23.523Z,59.83
2018-03-04T10:45:51.360Z,59.13
2018-03-04T10:48:19.239Z,59.13
2018-03-04T10:50:47.056Z,58.37
2018-03-04T10:53:14.851Z,59.80
2018-03-04T10:55:42.640Z,65.33
2018-03-04T10:58:10.476Z,75.50
2018-03-04T11:00:44.015Z,87.10
2018-03-04T11:03:11.884Z,95.50
2018-03-04T11:05:39.691Z,101.00
2018-03-04T11:08:07.552Z,96.13
2018-03-04T11:10:35.377Z,110.53
2018-03-04T11:13:04.024Z,116.00
2018-03-04T11:15:31.855Z,126.77
2018-03-04T11:17:59.733Z,125.40
2018-03-04T11:20:27.596Z,121.07
2018-03-04T11:22:55.483Z,116.53
2018-03-04T11:25:23.247Z,111.73
2018-03-04T11:27:51.087Z,109.73
2018-03-04T11:30:18.904Z,109.30
2018-03-04T11:32:46.692Z,112.28
2018-03-04T11:35:15.236Z,128.87
2018-03-04T11:37:43.009Z,128.33
2018-03-04T11:40:10.803Z,110.73
2018-03-04T11:42:38.567Z,100.90
2018-03-04T11:45:07.129Z,94.60
2018-03-04T11:47:34.928Z,93.37
2018-03-04T11:50:03.541Z,95.53
2018-03-04T11:52:31.332Z,94.23
2018-03-04T11:54:59.122Z,97.90
2018-03-04T11:57:27.711Z,96.13
2018-03-04T11:59:56.277Z,104.30
2018-03-04T12:02:24.058Z,102.93
2018-03-04T12:04:52.643Z,108.80
2018-03-04T12:07:21.223Z,115.50
2018-03-04T12:09:49.840Z,121.13
2018-03-04T12:12:17.604Z,121.37
2018-03-04T12:14:45.460Z,119.03
2018-03-04T12:17:13.260Z,119.33
2018-03-04T12:19:41.039Z,124.97
2018-03-04T12:22:08.867Z,129.10
2018-03-04T12:24:36.670Z,107.47
2018-03-04T12:27:04.447Z,95.67
2018-03-04T12:29:32.246Z,94.57
2018-03-04T12:32:00.080Z,85.83
2018-03-04T12:34:27.842Z,93.23
2018-03-04T12:36:55.634Z,94.07
2018-03-04T12:39:23.407Z,102.83
2018-03-04T12:41:51.214Z,117.07
2018-03-04T12:44:19.100Z,119.73
2018-03-04T12:46:46.875Z,118.30
2018-03-04T12:49:15.452Z,108.50
2018-03-04T12:51:44.048Z,109.07
2018-03-04T12:54:12.647Z,107.70
2018-03-04T12:56:40.458Z,109.53
2018-03-04T12:59:08.264Z,108.97
2018-03-04T13:01:36.813Z,109.47
2018-03-04T13:04:04.711Z,109.27
2018-03-04T13:06:33.295Z,109.87
2018-03-04T13:09:06.650Z,108.77
2018-03-04T13:11:35.576Z,108.77
2018-03-04T13:14:04.129Z,108.50
2018-03-04T13:16:31.920Z,111.40
2018-03-04T13:19:03.592Z,109.27
2018-03-04T13:24:04.513Z,106.83
2018-03-04T13:26:32.320Z,106.70
2018-03-04T13:29:00.185Z,106.90
2018-03-04T13:31:29.126Z,106.47
2018-03-04T13:33:59.604Z,107.03
2018-03-04T13:36:27.418Z,107.27
2018-03-04T13:38:55.437Z,107.90
2018-03-04T13:41:23.219Z,107.80
2018-03-04T13:43:51.032Z,107.40
2018-03-04T13:46:20.417Z,106.77
2018-03-04T13:51:21.891Z,108.07
2018-03-04T13:53:49.743Z,104.53
2018-03-04T13:56:18.380Z,105.70
2018-03-04T13:58:46.292Z,104.83
2018-03-04T14:01:14.093Z,105.13
2018-03-04T14:03:42.742Z,104.60
2018-03-04T14:06:10.589Z,107.33
2018-03-04T14:08:38.368Z,105.30
2018-03-04T14:11:06.212Z,106.60
2018-03-04T14:13:35.069Z,105.67
2018-03-04T14:16:02.986Z,105.87
2018-03-04T14:18:30.775Z,105.30
2018-03-04T14:20:58.599Z,107.70
2018-03-04T14:23:26.384Z,107.00
2018-03-04T14:25:54.189Z,110.53
2018-03-04T14:28:22.015Z,107.60
2018-03-04T14:30:49.812Z,106.23
2018-03-04T14:33:18.382Z,108.20
2018-03-04T14:35:46.184Z,107.87
2018-03-04T14:38:13.966Z,107.17
2018-03-04T14:40:41.791Z,109.33
2018-03-04T14:43:10.438Z,109.60
2018-03-04T14:48:12.948Z,108.43
2018-03-04T14:50:41.590Z,110.00
2018-03-04T14:53:09.401Z,108.33
2018-03-04T14:55:38.066Z,112.00
2018-03-04T14:58:05.875Z,108.37
2018-03-04T15:00:33.693Z,110.80
2018-03-04T15:03:01.532Z,111.00
2018-03-04T15:05:29.328Z,112.63
2018-03-04T15:07:57.112Z,111.10
2018-03-04T15:10:25.725Z,111.73
2018-03-04T15:12:53.528Z,111.50
2018-03-04T15:15:21.306Z,111.53
2018-03-04T15:17:49.108Z,110.17
2018-03-04T15:20:16.879Z,110.33
2018-03-04T15:22:44.680Z,109.63
2018-03-04T15:25:13.243Z,109.77
2018-03-04T15:27:41.043Z,107.93
2018-03-04T15:30:08.824Z,110.77
2018-03-04T15:32:37.392Z,111.60
2018-03-04T15:35:05.235Z,110.97
2018-03-04T15:37:33.057Z,110.47
2018-03-04T15:40:00.860Z,110.27
2018-03-04T15:42:28.676Z,112.53
2018-03-04T15:44:57.231Z,107.37
2018-03-04T15:47:25.096Z,108.53
2018-03-04T15:49:52.959Z,108.17
2018-03-04T15:52:20.803Z,107.27
2018-03-04T15:54:48.644Z,106.03
2018-03-04T15:57:16.473Z,104.83
2018-03-04T15:59:44.272Z,104.90
2018-03-04T16:02:12.152Z,102.70
2018-03-04T16:04:39.971Z,105.63
2018-03-04T16:07:08.584Z,102.73
2018-03-04T16:09:36.423Z,103.13
2018-03-04T16:12:04.992Z,99.62
2018-03-04T16:14:32.791Z,100.80
2018-03-04T16:17:00.711Z,100.23
2018-03-04T16:19:28.492Z,101.70
2018-03-04T16:21:57.081Z,104.00
2018-03-04T16:24:25.804Z,102.03
2018-03-04T16:26:53.708Z,99.60
2018-03-04T16:29:21.524Z,100.33
2018-03-04T16:31:49.325Z,101.85
2018-03-04T16:34:17.103Z,103.32
2018-03-04T16:36:44.922Z,99.37
2018-03-04T16:39:12.767Z,99.57
2018-03-04T16:41:40.664Z,100.50
2018-03-04T16:44:08.482Z,101.53
2018-03-04T16:46:37.053Z,102.10
2018-03-04T16:49:04.867Z,99.55
2018-03-04T16:51:32.653Z,100.03
2018-03-04T16:54:00.636Z,100.47
2018-03-04T16:56:28.431Z,101.55
2018-03-04T16:58:57.023Z,100.47
2018-03-04T17:01:24.819Z,100.28
2018-03-04T17:03:52.629Z,100.35
2018-03-04T17:06:20.414Z,102.95
2018-03-04T17:08:48.987Z,100.28
2018-03-04T17:11:17.651Z,102.32
2018-03-04T17:13:45.424Z,101.20
2018-03-04T17:16:13.238Z,101.85
2018-03-04T17:18:41.032Z,110.73
2018-03-04T17:21:08.887Z,110.83
2018-03-04T17:23:36.705Z,103.50
2018-03-04T17:26:05.252Z,109.63
2018-03-04T17:28:33.053Z,112.97
2018-03-04T17:31:01.659Z,108.85
2018-03-04T17:33:29.440Z,108.63
2018-03-04T17:35:57.257Z,109.10
2018-03-04T17:38:25.874Z,107.20
2018-03-04T17:40:53.676Z,106.28
2018-03-04T17:43:21.547Z,111.13
2018-03-04T17:45:49.419Z,108.80
2018-03-04T17:48:17.219Z,111.23
2018-03-04T17:50:45.774Z,102.73
2018-03-04T17:53:13.615Z,101.23
2018-03-04T17:55:41.806Z,100.95
2018-03-04T17:58:09.662Z,101.87
2018-03-04T18:00:37.448Z,102.00
2018-03-04T18:03:05.225Z,100.77
2018-03-04T18:05:33.775Z,100.75
2018-03-04T18:08:01.695Z,100.82
2018-03-04T18:10:29.480Z,103.55
2018-03-04T18:12:57.279Z,100.47
2018-03-04T18:15:25.060Z,102.10
2018-03-04T18:17:53.667Z,100.87
2018-03-04T18:20:21.595Z,100.57
2018-03-04T18:22:49.416Z,99.80
2018-03-04T18:25:17.300Z,101.60
2018-03-04T18:27:45.147Z,100.40
2018-03-04T18:30:12.933Z,101.37
2018-03-04T18:32:41.631Z,98.87
2018-03-04T18:35:09.452Z,100.30
2018-03-04T18:37:37.257Z,103.20
2018-03-04T18:40:05.092Z,103.43
2018-03-04T18:42:32.871Z,101.10
2018-03-04T18:45:00.664Z,100.25
2018-03-04T18:47:28.519Z,101.03
2018-03-04T18:49:56.345Z,101.47
2018-03-04T18:52:24.133Z,101.68
2018-03-04T18:54:51.998Z,99.32
2018-03-04T18:57:19.832Z,109.97
2018-03-04T18:59:47.659Z,110.60
2018-03-04T19:02:16.252Z,99.87
2018-03-04T19:04:44.828Z,99.95
2018-03-04T19:07:12.642Z,99.60
2018-03-04T19:09:41.264Z,100.40
2018-03-04T19:12:09.053Z,103.05
2018-03-04T19:14:37.660Z,100.07
2018-03-04T19:17:05.504Z,100.93
2018-03-04T19:19:34.084Z,103.45
2018-03-04T19:22:02.888Z,97.75
2018-03-04T19:24:30.744Z,103.47
2018-03-04T19:26:59.335Z,100.25
2018-03-04T19:29:27.177Z,99.40
2018-03-04T19:31:55.768Z,99.20
2018-03-04T19:34:24.314Z,99.65
2018-03-04T19:36:52.905Z,101.80
2018-03-04T19:39:21.361Z,100.30
2018-03-04T19:41:50.577Z,109.97
2018-03-04T19:44:18.370Z,108.30
2018-03-04T19:46:46.984Z,110.53
2018-03-04T19:49:14.815Z,101.32
2018-03-04T19:51:43.373Z,100.72
2018-03-04T19:54:11.171Z,108.05
2018-03-04T19:56:39.735Z,111.67
2018-03-04T19:59:08.325Z,101.47
2018-03-04T20:01:36.096Z,107.53
2018-03-04T20:04:04.689Z,110.80
2018-03-04T20:06:33.268Z,102.23
2018-03-04T20:09:01.837Z,102.93
2018-03-04T20:11:30.397Z,101.47
2018-03-04T20:13:58.245Z,103.57
2018-03-04T20:16:26.098Z,106.95
2018-03-04T20:18:54.044Z,112.05
2018-03-04T20:21:22.149Z,99.65
2018-03-04T20:23:50.145Z,101.25
2018-03-04T20:26:18.085Z,98.85
2018-03-04T20:28:46.043Z,100.43
2018-03-04T20:31:14.059Z,97.57
2018-03-04T20:33:42.073Z,99.43
2018-03-04T20:36:10.189Z,97.28
2018-03-04T20:38:38.255Z,99.43
2018-03-04T20:41:06.963Z,98.32
2018-03-04T20:43:35.582Z,96.43
2018-03-04T20:46:04.379Z,98.85
2018-03-04T20:48:32.285Z,100.90
2018-03-04T20:51:00.113Z,106.20
2018-03-04T20:53:28.151Z,110.05
2018-03-04T20:55:56.790Z,102.53
2018-03-04T20:58:24.700Z,101.68
2018-03-04T21:00:53.520Z,99.80
2018-03-04T21:03:21.715Z,100.55
2018-03-04T21:05:51.027Z,101.72
2018-03-04T21:08:19.440Z,100.68
2018-03-04T21:10:51.660Z,99.60
2018-03-04T21:13:22.224Z,101.38
2018-03-04T21:15:50.662Z,102.22
2018-03-04T21:18:18.784Z,100.18
2018-03-04T21:20:54.729Z,100.25
2018-03-04T21:23:23.111Z,97.97
2018-03-04T21:25:52.407Z,100.75
2018-03-04T21:28:21.957Z,99.47
2018-03-04T21:30:49.937Z,100.55
2018-03-04T21:33:18.157Z,103.15
2018-03-04T21:35:47.147Z,101.32
2018-03-04T21:38:19.501Z,102.95
2018-03-04T21:40:49.910Z,99.53
2018-03-04T21:43:18.430Z,108.77
2018-03-04T21:45:47.715Z,107.70
2018-03-04T21:48:15.756Z,99.55
2018-03-04T21:50:46.894Z,100.05
2018-03-04T21:53:15.373Z,102.40
2018-03-04T21:55:43.243Z,101.72
2018-03-04T21:58:11.315Z,100.90
2018-03-04T22:00:39.383Z,102.70
2018-03-04T22:03:07.350Z,100.60
2018-03-04T22:05:35.597Z,98.95
2018-03-04T22:08:03.792Z,97.88
2018-03-04T22:10:31.724Z,101.50
2018-03-04T22:13:00.489Z,100.85
2018-03-04T22:15:28.695Z,100.78
2018-03-04T22:17:57.415Z,98.95
2018-03-04T22:20:25.369Z,100.18
2018-03-04T22:22:53.353Z,101.40
2018-03-04T22:25:21.325Z,101.32
2018-03-04T22:27:49.218Z,101.60
2018-03-04T22:30:23.087Z,99.93
2018-03-04T22:32:51.326Z,98.95
2018-03-04T22:35:22.007Z,100.87
2018-03-04T22:37:52.705Z,101.70
2018-03-04T22:40:24.312Z,101.25
2018-03-04T22:42:52.658Z,102.47
2018-03-04T22:45:22.139Z,102.30
2018-03-04T22:47:50.060Z,101.40
2018-03-04T22:50:24.952Z,98.50
2018-03-04T22:52:55.104Z,100.53
2018-03-04T22:55:24.864Z,101.17
2018-03-04T22:57:57.025Z,100.40
2018-03-04T23:00:29.700Z,100.45
2018-03-04T23:03:01.522Z,101.30
2018-03-04T23:05:31.632Z,102.15
2018-03-04T23:11:00.582Z,104.30
2018-03-04T23:18:25.637Z,99.43
2018-03-04T23:21:05.837Z,106.07
2018-03-04T23:27:53.497Z,101.67
2018-03-04T23:30:30.302Z,101.93
2018-03-04T23:33:20.349Z,105.77
2018-03-04T23:35:57.033Z,105.97
2018-03-04T23:41:23.686Z,105.07
2018-03-04T23:44:15.044Z,107.63
2018-03-04T23:49:24.182Z,107.43
2018-03-04T23:51:52.487Z,111.33
2018-03-04T23:54:21.181Z,108.93
2018-03-04T23:56:51.698Z,108.57
2018-03-04T23:59:23.182Z,109.27
